Terminal Aerodrome Forecast
Issued by NWS

Home | Current Version | Previous Version | Text Only | Print | Product List | Glossary On
Versions: 1 2 3 4 5 6 7 8 9 10 11 12 13 14
574
FTUS42 KMLB 111129
TAFFPR
TAF
KFPR 111129Z 1112/1212 09011KT P6SM VCSH BKN035 BKN050 OVC090
     FM111400 11012G18KT P6SM VCSH BKN040
     FM120000 13010KT P6SM SCT035 SCT050
     FM120200 14005KT P6SM FEW035=

USA.gov is the U.S. government's official web portal to all federal, state and local government web resources and services.